Time;durP1;ratioP1;P1;durP2;ratioP2;P2;SDS_P1;SDS_P2;PMS_P1;PMS_P2;Temp;Humidity;BMP_temperature;BMP_pressure;BME280_temperature;BME280_humidity;BME280_pressure;Samples;Min_cycle;Max_cycle;Signal;HPM_P1;HPM_P2
2022/09/12 00:02:24;;;;;;;5.17;2.93;;;11.00;99.90;;;;;;5051118;28;20173;-66
2022/09/12 00:04:50;;;;;;;6.53;3.13;;;11.00;99.90;;;;;;5051579;28;20178;-66
2022/09/12 00:07:15;;;;;;;5.83;3.20;;;11.00;99.90;;;;;;5052044;28;20933;-66
2022/09/12 00:09:41;;;;;;;4.10;2.23;;;11.00;99.90;;;;;;5051409;28;20260;-66
2022/09/12 00:12:07;;;;;;;4.27;3.10;;;11.00;99.90;;;;;;5044986;28;20202;-66
2022/09/12 00:14:34;;;;;;;8.13;2.83;;;11.00;99.90;;;;;;5044687;28;20642;-66
2022/09/12 00:17:00;;;;;;;6.50;2.50;;;10.90;99.90;;;;;;5051461;28;20975;-66
2022/09/12 00:19:27;;;;;;;6.90;2.60;;;10.90;99.90;;;;;;5051649;28;20447;-67
2022/09/12 00:21:53;;;;;;;4.30;2.47;;;10.90;99.90;;;;;;5051104;28;20418;-66
2022/09/12 00:24:19;;;;;;;4.90;3.03;;;10.90;99.90;;;;;;5051327;28;20491;-66
2022/09/12 00:26:45;;;;;;;5.90;2.70;;;11.00;99.90;;;;;;5050556;28;20540;-66
2022/09/12 00:29:15;;;;;;;5.00;2.83;;;11.00;99.90;;;;;;5043504;28;20209;-66
2022/09/12 00:31:41;;;;;;;4.13;2.80;;;11.00;99.90;;;;;;5037508;28;20216;-66
2022/09/12 00:34:08;;;;;;;5.40;3.13;;;11.00;99.90;;;;;;5051532;28;20811;-66
2022/09/12 00:36:34;;;;;;;3.53;2.60;;;11.00;99.90;;;;;;5031703;28;20297;-67
2022/09/12 00:39:00;;;;;;;5.00;2.40;;;11.00;99.90;;;;;;5044604;28;20487;-66
2022/09/12 00:41:31;;;;;;;5.43;2.90;;;11.00;99.90;;;;;;5051054;28;20928;-66
2022/09/12 00:44:03;;;;;;;11.80;3.73;;;11.00;99.90;;;;;;5051469;28;20192;-66
2022/09/12 00:46:44;;;;;;;8.03;3.93;;;11.00;99.90;;;;;;5051165;28;20416;-67
2022/09/12 00:49:27;;;;;;;6.13;2.90;;;11.00;99.90;;;;;;5051438;28;20439;-66
2022/09/12 00:52:04;;;;;;;5.00;2.87;;;10.90;99.90;;;;;;5051171;28;20416;-66
2022/09/12 00:54:37;;;;;;;3.40;2.63;;;10.90;99.90;;;;;;5034777;28;20425;-66
2022/09/12 00:57:05;;;;;;;6.60;3.20;;;10.80;99.90;;;;;;5046989;28;20470;-66
2022/09/12 00:59:45;;;;;;;4.27;2.80;;;10.70;99.90;;;;;;5051619;28;20416;-66
2022/09/12 01:02:10;;;;;;;5.27;2.70;;;10.80;99.90;;;;;;5051244;28;20404;-66
2022/09/12 01:04:38;;;;;;;5.67;3.50;;;10.70;99.90;;;;;;5051535;28;20534;-66
2022/09/12 01:07:06;;;;;;;4.20;2.53;;;10.60;99.90;;;;;;5051571;28;20174;-66
2022/09/12 01:09:32;;;;;;;4.00;2.40;;;10.70;99.90;;;;;;5050929;28;20956;-66
2022/09/12 01:12:00;;;;;;;5.13;2.77;;;10.70;99.90;;;;;;5040059;28;20470;-66
2022/09/12 01:14:26;;;;;;;4.83;2.80;;;10.70;99.90;;;;;;5055098;28;20189;-66
2022/09/12 01:16:51;;;;;;;5.37;2.97;;;10.70;99.90;;;;;;5054637;28;20420;-66
2022/09/12 01:19:48;;;;;;;5.60;3.30;;;10.80;99.90;;;;;;5054755;28;20585;-66
2022/09/12 01:22:35;;;;;;;11.90;3.37;;;10.60;99.90;;;;;;5044686;28;20174;-66
2022/09/12 01:25:11;;;;;;;6.20;3.13;;;10.60;99.90;;;;;;5051823;28;20408;-66
2022/09/12 01:27:46;;;;;;;5.53;3.30;;;10.60;99.90;;;;;;5054753;28;21148;-66
2022/09/12 01:30:12;;;;;;;4.80;2.40;;;10.60;99.90;;;;;;5053406;28;20443;-66
2022/09/12 01:33:14;;;;;;;5.93;2.93;;;10.50;99.90;;;;;;5054099;28;20924;-66
2022/09/12 01:36:17;;;;;;;3.73;2.37;;;10.50;99.90;;;;;;5054567;28;20230;-66
2022/09/12 01:38:53;;;;;;;4.30;2.47;;;10.50;99.90;;;;;;5054309;28;20466;-66
2022/09/12 01:41:41;;;;;;;5.03;3.10;;;10.40;99.90;;;;;;5047936;28;20451;-66
2022/09/12 01:44:26;;;;;;;6.83;2.47;;;10.40;99.90;;;;;;5049960;28;20416;-66
2022/09/12 01:47:38;;;;;;;5.23;2.70;;;10.40;99.90;;;;;;5053871;28;20507;-66
2022/09/12 01:50:06;;;;;;;5.00;2.70;;;10.40;99.90;;;;;;5044044;28;20500;-66
2022/09/12 01:52:46;;;;;;;4.80;2.30;;;10.40;99.90;;;;;;5053790;28;20431;-66
2022/09/12 01:55:27;;;;;;;4.80;2.40;;;10.30;99.90;;;;;;5043868;28;20432;-66
2022/09/12 01:58:05;;;;;;;4.20;2.30;;;10.30;99.90;;;;;;5050502;28;20451;-67
2022/09/12 02:00:36;;;;;;;4.70;3.00;;;10.20;99.90;;;;;;5053430;28;20419;-66
2022/09/12 02:03:25;;;;;;;4.30;2.60;;;10.20;99.90;;;;;;5053687;28;20412;-65
2022/09/12 02:05:55;;;;;;;5.17;3.10;;;10.30;99.90;;;;;;5053864;28;20465;-66
2022/09/12 02:08:40;;;;;;;3.90;2.60;;;10.30;99.90;;;;;;5053999;28;20959;-66
2022/09/12 02:11:09;;;;;;;4.50;2.47;;;10.30;99.90;;;;;;5053380;28;20416;-66
2022/09/12 02:13:56;;;;;;;5.13;3.00;;;10.20;99.90;;;;;;5053770;28;20444;-66
2022/09/12 02:16:27;;;;;;;4.37;2.43;;;10.20;99.90;;;;;;5053323;28;20788;-66
2022/09/12 02:18:58;;;;;;;4.93;2.20;;;10.20;99.90;;;;;;5053874;28;20491;-66
2022/09/12 02:21:26;;;;;;;3.93;2.60;;;10.20;99.90;;;;;;5053202;28;20831;-66
2022/09/12 02:23:58;;;;;;;5.80;3.13;;;10.20;99.90;;;;;;5053149;28;20412;-66
2022/09/12 02:26:31;;;;;;;5.90;3.40;;;10.20;99.90;;;;;;5048890;28;20425;-66
2022/09/12 02:28:57;;;;;;;6.03;3.00;;;10.20;99.90;;;;;;5046352;28;20833;-66
2022/09/12 02:31:37;;;;;;;5.27;2.97;;;10.10;99.90;;;;;;5051822;28;20433;-66
2022/09/12 02:34:38;;;;;;;25.83;2.63;;;10.10;99.90;;;;;;5053802;28;20552;-66
2022/09/12 02:37:26;;;;;;;10.73;2.13;;;10.00;99.90;;;;;;5053809;28;20471;-67
2022/09/12 02:39:54;;;;;;;5.77;3.50;;;10.00;99.90;;;;;;5041460;28;20483;-66
2022/09/12 02:42:21;;;;;;;6.73;3.40;;;10.00;99.90;;;;;;5052964;28;20442;-66
2022/09/12 02:44:47;;;;;;;5.63;2.80;;;10.00;99.90;;;;;;5052328;28;20421;-66
2022/09/12 02:47:44;;;;;;;4.50;2.40;;;10.00;99.90;;;;;;5052687;28;20838;-66
2022/09/12 02:50:11;;;;;;;6.07;2.93;;;10.00;99.90;;;;;;5049099;28;20440;-66
2022/09/12 02:52:38;;;;;;;4.73;2.20;;;9.90;99.90;;;;;;5052346;28;20423;-66
2022/09/12 02:55:05;;;;;;;5.00;2.60;;;10.00;99.90;;;;;;5039225;28;20445;-66
2022/09/12 02:57:31;;;;;;;4.80;2.87;;;9.90;99.90;;;;;;5052238;28;20456;-66
2022/09/12 02:59:59;;;;;;;4.90;2.90;;;9.90;99.90;;;;;;5052024;28;20845;-66
2022/09/12 03:02:28;;;;;;;4.50;2.67;;;9.90;99.90;;;;;;5039177;28;20945;-66
2022/09/12 03:05:05;;;;;;;4.57;2.57;;;9.90;99.90;;;;;;5052792;28;20418;-66
2022/09/12 03:07:49;;;;;;;8.60;2.83;;;9.90;99.90;;;;;;5052491;28;20487;-66
2022/09/12 03:10:31;;;;;;;17.57;3.83;;;9.90;99.90;;;;;;5051979;28;20963;-66
2022/09/12 03:13:14;;;;;;;4.57;2.57;;;9.90;99.90;;;;;;5051659;28;20444;-66
2022/09/12 03:15:56;;;;;;;5.83;2.57;;;9.90;99.90;;;;;;5051985;28;20846;-67
2022/09/12 03:18:24;;;;;;;3.50;2.30;;;9.80;99.90;;;;;;5052262;28;20467;-66
2022/09/12 03:20:52;;;;;;;4.90;2.80;;;9.80;99.90;;;;;;5052144;28;20412;-66
2022/09/12 03:23:41;;;;;;;4.30;2.67;;;9.80;99.90;;;;;;5051452;28;20420;-66
2022/09/12 03:26:20;;;;;;;7.10;3.67;;;9.70;99.90;;;;;;5045901;28;21005;-66
2022/09/12 03:28:47;;;;;;;4.13;3.00;;;9.70;99.90;;;;;;5043931;28;20425;-66
2022/09/12 03:31:15;;;;;;;4.70;3.10;;;9.60;99.90;;;;;;5050309;28;20419;-66
2022/09/12 03:33:41;;;;;;;6.00;3.13;;;9.70;99.90;;;;;;5051670;28;20426;-66
2022/09/12 03:36:31;;;;;;;10.37;3.30;;;9.60;99.90;;;;;;5051068;28;20789;-66
2022/09/12 03:38:57;;;;;;;5.27;2.80;;;9.60;99.90;;;;;;5051472;28;20209;-66
2022/09/12 03:41:23;;;;;;;3.60;2.27;;;9.60;99.90;;;;;;5051395;28;20474;-66
2022/09/12 03:43:48;;;;;;;6.17;2.90;;;9.60;99.90;;;;;;5051501;28;20193;-66
2022/09/12 03:46:14;;;;;;;6.17;2.90;;;9.60;99.90;;;;;;5051171;28;20177;-66
2022/09/12 03:48:40;;;;;;;6.40;3.53;;;9.60;99.90;;;;;;5051599;28;20664;-66
2022/09/12 03:51:08;;;;;;;5.13;3.13;;;9.70;99.90;;;;;;5051093;28;20252;-66
2022/09/12 03:53:34;;;;;;;6.23;3.57;;;9.60;99.90;;;;;;5051560;28;20416;-67
2022/09/12 03:56:04;;;;;;;4.77;2.40;;;9.60;99.90;;;;;;5045328;28;20921;-67
2022/09/12 03:58:30;;;;;;;8.10;3.93;;;9.60;99.90;;;;;;5051017;28;20206;-66
2022/09/12 04:00:56;;;;;;;5.33;2.60;;;9.60;99.90;;;;;;5051122;28;20412;-66
2022/09/12 04:03:22;;;;;;;5.43;2.90;;;9.50;99.90;;;;;;5051244;28;20420;-66
2022/09/12 04:05:47;;;;;;;7.03;3.23;;;9.50;99.90;;;;;;5051460;28;20473;-66
2022/09/12 04:08:13;;;;;;;5.17;3.00;;;9.40;99.90;;;;;;5051400;28;20513;-66
2022/09/12 04:10:39;;;;;;;6.77;3.10;;;9.40;99.90;;;;;;5050957;28;20213;-66
2022/09/12 04:13:05;;;;;;;8.23;3.30;;;9.40;99.90;;;;;;5050579;28;20416;-66
2022/09/12 04:15:31;;;;;;;4.27;2.53;;;9.40;99.90;;;;;;5050890;28;20205;-66
2022/09/12 04:17:57;;;;;;;8.10;3.50;;;9.30;99.90;;;;;;5051145;28;20459;-66
2022/09/12 04:20:22;;;;;;;4.60;2.50;;;9.30;99.90;;;;;;5051050;28;20279;-67
2022/09/12 04:22:48;;;;;;;4.13;2.80;;;9.30;99.90;;;;;;5050713;28;20170;-67
2022/09/12 04:25:14;;;;;;;5.73;2.90;;;9.30;99.90;;;;;;5050675;28;20650;-66
2022/09/12 04:27:40;;;;;;;6.40;2.93;;;9.20;99.90;;;;;;5042996;28;20186;-66
2022/09/12 04:30:07;;;;;;;6.03;3.40;;;9.20;99.90;;;;;;5049933;28;20182;-66
2022/09/12 04:32:32;;;;;;;3.80;2.70;;;9.30;99.90;;;;;;5050319;28;20427;-66
2022/09/12 04:34:58;;;;;;;5.43;2.70;;;9.20;99.90;;;;;;5050702;28;20416;-66
2022/09/12 04:37:24;;;;;;;4.20;2.53;;;9.20;99.90;;;;;;5050717;28;20221;-66
2022/09/12 04:39:50;;;;;;;4.97;3.23;;;9.10;99.90;;;;;;5050571;28;20213;-66
2022/09/12 04:42:16;;;;;;;6.07;3.00;;;9.20;99.90;;;;;;5050667;28;20213;-66
2022/09/12 04:44:41;;;;;;;8.43;3.10;;;9.20;99.90;;;;;;5050130;28;20478;-66
2022/09/12 04:47:07;;;;;;;9.20;3.20;;;9.20;99.90;;;;;;5053719;28;20186;-66
2022/09/12 04:49:33;;;;;;;6.30;3.13;;;9.10;99.90;;;;;;5054707;28;20201;-66
2022/09/12 04:51:58;;;;;;;6.43;3.60;;;9.00;99.90;;;;;;5054212;28;20185;-66
2022/09/12 04:54:25;;;;;;;6.13;3.33;;;9.10;99.90;;;;;;5054265;28;20190;-66
2022/09/12 04:56:51;;;;;;;7.83;3.43;;;9.10;99.90;;;;;;5054436;28;20213;-66
2022/09/12 04:59:18;;;;;;;6.93;3.37;;;9.00;99.90;;;;;;5054345;28;20420;-66
2022/09/12 05:01:44;;;;;;;4.90;3.17;;;9.00;99.90;;;;;;5053504;28;20431;-66
2022/09/12 05:04:12;;;;;;;5.43;2.87;;;9.00;99.90;;;;;;5054219;28;20432;-66
2022/09/12 05:06:39;;;;;;;4.40;2.83;;;9.00;99.90;;;;;;5054264;28;20439;-66
2022/09/12 05:09:07;;;;;;;5.47;3.50;;;9.10;99.90;;;;;;5054609;28;20782;-66
2022/09/12 05:11:36;;;;;;;5.37;3.20;;;9.10;99.90;;;;;;5053536;28;20428;-66
2022/09/12 05:14:01;;;;;;;8.50;3.10;;;9.10;99.90;;;;;;5054559;28;20513;-66
2022/09/12 05:16:27;;;;;;;3.80;2.47;;;9.10;99.90;;;;;;5053789;28;20467;-67
2022/09/12 05:18:56;;;;;;;5.73;3.13;;;9.10;99.90;;;;;;5054433;28;20210;-66
2022/09/12 05:21:23;;;;;;;4.20;2.60;;;9.10;99.90;;;;;;5053506;28;20430;-66
2022/09/12 05:23:53;;;;;;;9.50;3.50;;;9.20;99.90;;;;;;5054401;28;20424;-66
2022/09/12 05:26:20;;;;;;;4.83;3.27;;;9.20;99.90;;;;;;5054091;28;20420;-66
2022/09/12 05:28:47;;;;;;;5.37;2.90;;;9.30;99.90;;;;;;5046566;28;20867;-66
2022/09/12 05:31:17;;;;;;;7.93;3.57;;;9.30;99.90;;;;;;5051937;28;20432;-66
2022/09/12 05:33:44;;;;;;;5.00;2.90;;;9.30;99.90;;;;;;5054304;28;20417;-66
2022/09/12 05:36:12;;;;;;;6.17;3.37;;;9.30;99.90;;;;;;5054108;28;20420;-66
2022/09/12 05:38:38;;;;;;;6.17;3.00;;;9.30;99.90;;;;;;5054227;28;20517;-66
2022/09/12 05:41:15;;;;;;;4.33;2.67;;;9.40;99.90;;;;;;5053405;28;20515;-66
2022/09/12 05:43:41;;;;;;;5.63;2.80;;;9.40;99.90;;;;;;5042314;28;20436;-65
2022/09/12 05:46:11;;;;;;;14.30;6.90;;;9.40;99.90;;;;;;5052251;28;20520;-65
2022/09/12 05:48:38;;;;;;;12.63;4.27;;;9.40;99.90;;;;;;5053944;28;20507;-66
2022/09/12 05:51:07;;;;;;;10.47;4.60;;;9.50;99.90;;;;;;5053163;28;20451;-66
2022/09/12 05:53:34;;;;;;;17.70;3.93;;;9.60;99.90;;;;;;5053707;28;20447;-66
2022/09/12 05:56:05;;;;;;;11.70;5.13;;;9.60;99.90;;;;;;5043329;28;20443;-66
2022/09/12 05:58:30;;;;;;;7.27;4.03;;;9.70;99.90;;;;;;5052495;28;20852;-66
2022/09/12 06:01:06;;;;;;;9.37;4.03;;;9.70;99.90;;;;;;5052691;28;20428;-66
2022/09/12 06:03:32;;;;;;;8.10;3.23;;;9.80;99.90;;;;;;5053137;28;20181;-66
2022/09/12 06:06:01;;;;;;;6.00;3.07;;;9.90;99.90;;;;;;5053175;28;20431;-66
2022/09/12 06:08:27;;;;;;;4.60;3.57;;;9.90;99.90;;;;;;5053590;28;20482;-66
2022/09/12 06:10:58;;;;;;;9.20;4.73;;;10.00;99.90;;;;;;5048144;28;20901;-66
2022/09/12 06:13:24;;;;;;;6.93;4.30;;;10.00;99.90;;;;;;5044032;28;20184;-66
2022/09/12 06:15:49;;;;;;;7.30;4.30;;;10.10;99.90;;;;;;5045750;28;20417;-66
2022/09/12 06:18:15;;;;;;;7.20;3.53;;;10.20;99.90;;;;;;5049238;28;20677;-66
2022/09/12 06:20:40;;;;;;;6.03;3.90;;;10.20;99.90;;;;;;5042590;28;20280;-66
2022/09/12 06:23:06;;;;;;;7.90;3.83;;;10.30;99.90;;;;;;5048737;28;20186;-66
2022/09/12 06:25:31;;;;;;;8.13;3.57;;;10.40;99.90;;;;;;5050283;28;20186;-66
2022/09/12 06:27:57;;;;;;;6.37;4.03;;;10.60;99.90;;;;;;5052875;28;20646;-66
2022/09/12 06:30:23;;;;;;;12.60;4.80;;;10.80;99.90;;;;;;5050717;28;20198;-66
2022/09/12 06:32:48;;;;;;;8.60;4.17;;;10.80;99.90;;;;;;5044211;28;20197;-66
2022/09/12 06:35:14;;;;;;;23.67;3.73;;;10.90;99.90;;;;;;5049756;28;20217;-66
2022/09/12 06:37:42;;;;;;;8.03;4.37;;;11.00;99.90;;;;;;5052465;28;20244;-66
2022/09/12 06:40:09;;;;;;;9.03;4.30;;;11.10;99.90;;;;;;5052443;28;20216;-66
2022/09/12 06:42:34;;;;;;;7.80;4.07;;;11.20;99.90;;;;;;5052267;28;20749;-66
2022/09/12 06:45:00;;;;;;;7.20;4.67;;;11.30;99.90;;;;;;5041694;28;20413;-65
2022/09/12 06:47:25;;;;;;;6.50;4.10;;;11.40;99.90;;;;;;5049907;28;20185;-66
2022/09/12 06:49:51;;;;;;;8.50;4.87;;;11.60;99.90;;;;;;5052528;28;20609;-66
2022/09/12 06:52:16;;;;;;;15.80;5.00;;;11.90;99.90;;;;;;5052074;28;20192;-66
2022/09/12 06:54:42;;;;;;;10.07;5.07;;;12.00;99.90;;;;;;5046462;28;20576;-66
2022/09/12 06:57:08;;;;;;;9.17;5.47;;;12.20;99.90;;;;;;5049559;28;20185;-65
2022/09/12 06:59:33;;;;;;;9.70;4.53;;;12.40;99.90;;;;;;5052520;28;20185;-65
2022/09/12 07:02:00;;;;;;;11.43;5.80;;;12.60;99.90;;;;;;5051787;28;20265;-66
2022/09/12 07:04:26;;;;;;;9.50;3.97;;;12.70;99.90;;;;;;5042032;28;20178;-66
2022/09/12 07:06:52;;;;;;;9.93;5.30;;;13.00;99.90;;;;;;5049307;28;20428;-66
2022/09/12 07:09:17;;;;;;;7.60;4.27;;;13.30;99.90;;;;;;5051709;28;20439;-66
2022/09/12 07:11:44;;;;;;;7.33;4.30;;;13.70;99.90;;;;;;5050970;28;20189;-66
2022/09/12 07:14:12;;;;;;;7.90;3.70;;;14.10;99.90;;;;;;5051482;28;20173;-66
2022/09/12 07:16:38;;;;;;;5.17;3.43;;;14.50;99.90;;;;;;5046548;28;20861;-66
2022/09/12 07:19:05;;;;;;;8.30;3.80;;;14.90;99.90;;;;;;5047904;28;20576;-66
2022/09/12 07:21:32;;;;;;;7.93;3.67;;;15.40;99.90;;;;;;5050764;28;20189;-66
2022/09/12 07:23:58;;;;;;;3.87;2.67;;;16.30;99.90;;;;;;5051876;28;20420;-66
2022/09/12 07:26:26;;;;;;;4.90;2.50;;;17.50;99.90;;;;;;5049401;28;20503;-66
2022/09/12 07:28:55;;;;;;;7.10;3.03;;;18.50;99.90;;;;;;5051910;28;20428;-67
2022/09/12 07:31:23;;;;;;;6.93;2.40;;;19.60;99.90;;;;;;5049805;28;20516;-66
2022/09/12 07:33:49;;;;;;;9.20;2.60;;;20.70;99.40;;;;;;5051780;28;21050;-67
2022/09/12 07:36:17;;;;;;;5.97;2.80;;;21.30;97.60;;;;;;5051354;28;20428;-66
2022/09/12 07:38:45;;;;;;;5.00;2.23;;;21.40;97.60;;;;;;5051634;28;21034;-67
2022/09/12 07:41:17;;;;;;;4.20;2.40;;;21.90;95.80;;;;;;5051104;28;20458;-67
2022/09/12 07:43:42;;;;;;;4.90;1.67;;;22.80;95.00;;;;;;5051429;28;20427;-66
2022/09/12 07:46:09;;;;;;;4.80;2.13;;;22.80;94.20;;;;;;5050691;28;20419;-67
2022/09/12 07:48:35;;;;;;;4.53;2.03;;;22.70;94.70;;;;;;5049975;28;20641;-66
2022/09/12 07:51:03;;;;;;;4.10;2.00;;;23.10;94.10;;;;;;5050778;28;20431;-66
2022/09/12 07:53:35;;;;;;;5.20;2.60;;;23.40;93.30;;;;;;5051135;28;21063;-67
2022/09/12 07:56:03;;;;;;;3.70;1.77;;;23.10;94.40;;;;;;5047512;28;20440;-67
2022/09/12 07:58:29;;;;;;;4.13;2.27;;;23.10;93.40;;;;;;5050904;28;20470;-68
2022/09/12 08:01:04;;;;;;;2.53;1.50;;;24.00;92.20;;;;;;5050717;28;20422;-67
2022/09/12 08:03:30;;;;;;;4.00;2.13;;;23.50;92.30;;;;;;5050997;28;20423;-67
2022/09/12 08:06:07;;;;;;;3.30;1.80;;;23.80;91.80;;;;;;5051314;28;20420;-66
2022/09/12 08:08:34;;;;;;;3.90;1.43;;;23.00;91.60;;;;;;5050977;28;20510;-67
2022/09/12 08:11:02;;;;;;;2.20;1.20;;;22.60;92.40;;;;;;5050405;28;20900;-66
2022/09/12 08:13:29;;;;;;;2.60;1.37;;;22.70;92.70;;;;;;5050792;28;20476;-66
2022/09/12 08:15:58;;;;;;;2.20;1.00;;;22.60;92.10;;;;;;5050677;28;20423;-66
2022/09/12 08:18:27;;;;;;;2.97;1.47;;;23.10;91.80;;;;;;5050831;28;20459;-66
2022/09/12 08:21:05;;;;;;;1.90;0.77;;;22.80;91.20;;;;;;5050424;28;20502;-66
2022/09/12 08:23:31;;;;;;;2.27;1.10;;;22.20;91.80;;;;;;5031165;28;20438;-66
2022/09/12 08:26:02;;;;;;;2.00;1.07;;;22.20;92.00;;;;;;5047076;28;20416;-66
2022/09/12 08:28:29;;;;;;;2.23;1.10;;;22.00;92.40;;;;;;5046441;28;20704;-66
2022/09/12 08:31:10;;;;;;;2.20;1.07;;;21.80;92.30;;;;;;5050116;28;20420;-66
2022/09/12 08:33:36;;;;;;;4.73;1.20;;;22.30;91.80;;;;;;5051327;28;20419;-66
2022/09/12 08:36:03;;;;;;;1.60;0.70;;;22.20;91.60;;;;;;5051010;28;20502;-66
2022/09/12 08:38:29;;;;;;;2.13;1.00;;;22.30;91.50;;;;;;5050962;28;20951;-66
2022/09/12 08:41:02;;;;;;;3.00;1.23;;;22.60;90.50;;;;;;5050659;28;20420;-67
2022/09/12 08:43:52;;;;;;;2.97;1.23;;;22.70;91.10;;;;;;5050977;28;20184;-67
2022/09/12 08:46:50;;;;;;;2.00;1.10;;;22.60;90.10;;;;;;5050564;28;20667;-66
2022/09/12 08:49:42;;;;;;;2.00;1.10;;;22.40;90.30;;;;;;5033779;28;20480;-66
2022/09/12 08:52:15;;;;;;;1.87;0.90;;;22.30;90.60;;;;;;5025307;28;21279;-67
2022/09/12 08:54:44;;;;;;;2.00;1.00;;;22.30;90.90;;;;;;5045208;28;20424;-66
2022/09/12 08:57:10;;;;;;;2.10;1.20;;;22.20;90.60;;;;;;5046196;28;20502;-67
2022/09/12 08:59:41;;;;;;;12.20;1.23;;;22.20;91.00;;;;;;5050553;28;20650;-66
2022/09/12 09:02:29;;;;;;;2.37;1.10;;;22.70;90.70;;;;;;5051024;28;20420;-67
2022/09/12 09:05:01;;;;;;;1.73;0.80;;;22.90;90.00;;;;;;5050723;28;20200;-68
2022/09/12 09:07:32;;;;;;;2.30;1.00;;;23.20;90.00;;;;;;5050938;28;20286;-67
2022/09/12 09:10:39;;;;;;;2.27;1.07;;;23.80;88.10;;;;;;5050496;28;20664;-67
2022/09/12 09:13:11;;;;;;;2.20;1.07;;;23.50;89.90;;;;;;5041339;28;20720;-68
2022/09/12 09:15:48;;;;;;;1.80;0.90;;;23.60;89.20;;;;;;5050720;28;20189;-68
2022/09/12 09:18:30;;;;;;;4.00;1.50;;;24.00;86.80;;;;;;5050957;28;20229;-67
2022/09/12 09:21:13;;;;;;;2.35;1.10;;;23.70;88.30;;;;;;5050500;28;20185;-68
2022/09/12 09:23:43;;;;;;;2.15;0.90;;;23.60;89.50;;;;;;5030821;28;20184;-67
2022/09/12 09:26:41;;;;;;;1.95;1.08;;;23.70;87.20;;;;;;5048072;28;20181;-67
2022/09/12 09:29:21;;;;;;;1.80;1.00;;;23.30;87.30;;;;;;5042562;28;20197;-67
2022/09/12 09:31:51;;;;;;;2.73;1.10;;;22.70;90.10;;;;;;5038317;28;20208;-67
2022/09/12 09:34:22;;;;;;;1.90;0.80;;;23.00;89.90;;;;;;5053370;28;20189;-67
2022/09/12 09:37:00;;;;;;;1.60;0.80;;;23.20;88.80;;;;;;5054135;28;20556;-67
2022/09/12 09:40:06;;;;;;;2.40;1.20;;;23.00;90.00;;;;;;5054337;28;20204;-68
2022/09/12 09:42:52;;;;;;;3.07;1.13;;;23.00;90.20;;;;;;5053357;28;20173;-67
2022/09/12 09:45:23;;;;;;;2.67;1.07;;;23.20;87.80;;;;;;5053483;28;20244;-67
2022/09/12 09:48:16;;;;;;;2.10;0.93;;;22.90;88.90;;;;;;5041523;28;20488;-67
2022/09/12 09:50:42;;;;;;;2.10;1.23;;;22.50;89.60;;;;;;5049058;28;20435;-67
2022/09/12 09:53:35;;;;;;;2.00;0.90;;;22.50;89.40;;;;;;5053365;28;20427;-67
2022/09/12 09:56:08;;;;;;;3.23;1.50;;;22.50;89.30;;;;;;5049960;28;20440;-66
2022/09/12 09:58:35;;;;;;;3.00;0.90;;;22.40;89.70;;;;;;5053433;28;20454;-67
2022/09/12 10:01:04;;;;;;;2.10;1.00;;;22.30;90.10;;;;;;5053060;28;20814;-67
2022/09/12 10:03:37;;;;;;;2.60;1.00;;;22.20;90.20;;;;;;5053171;28;20469;-67
2022/09/12 10:06:20;;;;;;;2.13;1.10;;;21.90;89.10;;;;;;5053533;28;20467;-66
2022/09/12 10:08:47;;;;;;;2.13;0.90;;;21.80;90.80;;;;;;5053196;28;20434;-67
2022/09/12 10:11:17;;;;;;;2.23;1.20;;;21.80;89.50;;;;;;5052778;28;20470;-67
2022/09/12 10:13:50;;;;;;;2.20;1.07;;;21.80;90.00;;;;;;5040005;28;20408;-67
2022/09/12 10:16:22;;;;;;;1.87;0.93;;;22.00;89.70;;;;;;5052739;28;20516;-67
2022/09/12 10:18:49;;;;;;;1.90;0.93;;;22.00;86.30;;;;;;5053020;28;20976;-67
2022/09/12 10:21:22;;;;;;;2.00;0.97;;;22.10;86.40;;;;;;5052412;28;20490;-66
2022/09/12 10:23:58;;;;;;;1.67;0.80;;;22.20;87.00;;;;;;5053064;28;20414;-67
2022/09/12 10:26:25;;;;;;;4.70;1.00;;;22.10;88.60;;;;;;5052534;28;20749;-67
2022/09/12 10:28:55;;;;;;;1.87;0.70;;;22.10;90.00;;;;;;5052958;28;20416;-67
2022/09/12 10:31:42;;;;;;;3.00;1.10;;;22.10;86.10;;;;;;5050739;28;20420;-67
2022/09/12 10:34:33;;;;;;;1.80;0.77;;;22.30;85.90;;;;;;5052861;28;20510;-67
2022/09/12 10:37:03;;;;;;;1.50;0.70;;;22.20;84.90;;;;;;5052706;28;20431;-67
2022/09/12 10:39:30;;;;;;;1.40;0.60;;;22.10;87.20;;;;;;5052523;28;20461;-67
2022/09/12 10:41:56;;;;;;;1.87;1.10;;;22.30;89.10;;;;;;5051878;28;20461;-67
2022/09/12 10:44:27;;;;;;;2.63;1.10;;;22.60;87.90;;;;;;5051787;28;20408;-66
2022/09/12 10:46:54;;;;;;;1.83;0.83;;;22.50;83.80;;;;;;5052204;28;20561;-67
2022/09/12 10:49:21;;;;;;;3.20;0.90;;;22.40;82.00;;;;;;5052557;28;20503;-66
2022/09/12 10:51:48;;;;;;;2.27;0.80;;;22.70;82.10;;;;;;5052504;28;20424;-67
2022/09/12 10:54:17;;;;;;;2.00;0.70;;;22.90;80.50;;;;;;5050493;28;20459;-65
2022/09/12 10:56:53;;;;;;;1.60;0.80;;;22.90;80.20;;;;;;5044970;28;20831;-66
2022/09/12 10:59:39;;;;;;;2.30;1.07;;;23.20;78.10;;;;;;5039851;28;20487;-66
2022/09/12 11:02:31;;;;;;;2.07;0.80;;;23.40;80.50;;;;;;5051861;28;20763;-66
2022/09/12 11:05:10;;;;;;;1.60;0.77;;;23.30;81.50;;;;;;5052033;28;20507;-66
2022/09/12 11:07:51;;;;;;;2.63;1.27;;;23.00;80.70;;;;;;5051938;28;20499;-65
2022/09/12 11:10:22;;;;;;;5.87;0.70;;;22.80;81.30;;;;;;5052009;28;20789;-65
2022/09/12 11:13:17;;;;;;;1.40;0.50;;;22.90;76.40;;;;;;5052476;28;20428;-65
2022/09/12 11:16:01;;;;;;;2.37;0.80;;;23.10;76.50;;;;;;5041979;28;20408;-65
2022/09/12 11:18:47;;;;;;;2.03;1.00;;;23.00;78.00;;;;;;5052638;28;20455;-65
2022/09/12 11:21:31;;;;;;;1.60;0.70;;;23.00;77.80;;;;;;5051871;28;20456;-66
2022/09/12 11:24:34;;;;;;;15.93;1.47;;;22.80;75.50;;;;;;5052652;28;20502;-67
2022/09/12 11:27:04;;;;;;;1.60;0.60;;;23.10;76.90;;;;;;5037772;28;20466;-66
2022/09/12 11:29:49;;;;;;;1.50;0.60;;;23.10;76.40;;;;;;5047007;28;20412;-66
2022/09/12 11:32:48;;;;;;;1.60;0.60;;;23.20;77.40;;;;;;5052339;28;20420;-67
2022/09/12 11:35:26;;;;;;;2.67;0.63;;;23.50;78.90;;;;;;5041888;28;20462;-66
2022/09/12 11:38:21;;;;;;;2.00;0.70;;;23.60;76.00;;;;;;5044706;28;20955;-67
2022/09/12 11:41:12;;;;;;;1.70;0.77;;;23.50;74.20;;;;;;5043757;28;20438;-66
2022/09/12 11:43:52;;;;;;;1.60;0.80;;;23.30;75.80;;;;;;5043025;28;21002;-67
2022/09/12 11:46:29;;;;;;;2.13;0.97;;;23.50;79.10;;;;;;5041254;28;20480;-67
2022/09/12 11:49:14;;;;;;;1.60;0.70;;;23.80;74.10;;;;;;5044329;28;20423;-68
2022/09/12 11:51:58;;;;;;;2.70;0.83;;;23.60;74.30;;;;;;5051337;28;20502;-67
2022/09/12 11:54:27;;;;;;;4.53;0.90;;;23.50;75.80;;;;;;5032465;28;20430;-68
2022/09/12 11:57:07;;;;;;;1.50;0.60;;;23.90;74.90;;;;;;5041951;28;20436;-67
2022/09/12 11:59:36;;;;;;;4.50;1.27;;;24.00;73.90;;;;;;5041679;28;20423;-68
2022/09/12 12:02:03;;;;;;;2.13;0.90;;;23.80;73.40;;;;;;5043029;28;20858;-67
2022/09/12 12:04:39;;;;;;;1.50;0.70;;;23.90;75.50;;;;;;5042122;28;20408;-68
2022/09/12 12:07:09;;;;;;;1.90;0.67;;;24.00;74.50;;;;;;5041823;28;20426;-68
2022/09/12 12:09:48;;;;;;;3.87;0.80;;;23.80;73.00;;;;;;5039702;28;21278;-68
2022/09/12 12:12:21;;;;;;;1.60;0.73;;;23.80;72.30;;;;;;5041003;28;20455;-68
2022/09/12 12:14:50;;;;;;;3.43;1.03;;;23.80;76.00;;;;;;5041492;28;20424;-68
2022/09/12 12:17:22;;;;;;;2.20;0.93;;;24.00;72.80;;;;;;5041203;28;20420;-68
2022/09/12 12:20:00;;;;;;;2.33;0.90;;;23.90;72.40;;;;;;5042330;28;20419;-68
2022/09/12 12:22:26;;;;;;;3.73;1.50;;;24.20;73.30;;;;;;5040248;28;20484;-68
2022/09/12 12:25:04;;;;;;;1.90;0.90;;;24.10;74.10;;;;;;5043462;28;20965;-67
2022/09/12 12:27:54;;;;;;;1.47;0.60;;;24.20;74.50;;;;;;5037103;28;20189;-68
2022/09/12 12:30:28;;;;;;;2.53;1.03;;;24.50;75.40;;;;;;5050141;28;20515;-68
2022/09/12 12:33:01;;;;;;;1.60;0.80;;;24.60;74.30;;;;;;5049957;28;20445;-68
2022/09/12 12:35:53;;;;;;;1.97;0.80;;;25.00;71.90;;;;;;5051112;28;20423;-68
2022/09/12 12:38:38;;;;;;;2.47;1.00;;;24.70;74.50;;;;;;5022614;28;20824;-68
2022/09/12 12:41:15;;;;;;;1.70;0.80;;;24.60;73.80;;;;;;5047586;28;20738;-67
2022/09/12 12:43:51;;;;;;;1.60;0.80;;;24.50;74.80;;;;;;5050068;28;20903;-67
2022/09/12 12:46:25;;;;;;;2.27;0.80;;;24.50;73.00;;;;;;5037543;28;20959;-68
2022/09/12 12:49:12;;;;;;;1.67;0.80;;;24.40;72.60;;;;;;5050198;28;20424;-68
2022/09/12 12:51:54;;;;;;;1.60;0.87;;;24.60;73.30;;;;;;5049503;28;20781;-68
2022/09/12 12:54:48;;;;;;;1.50;0.60;;;24.80;73.80;;;;;;5037393;28;20431;-68
2022/09/12 12:57:28;;;;;;;1.50;0.70;;;24.70;71.20;;;;;;5049103;28;20518;-68
2022/09/12 13:00:17;;;;;;;3.97;0.80;;;25.00;71.30;;;;;;5049802;28;20423;-68
2022/09/12 13:02:51;;;;;;;1.70;0.80;;;24.70;71.00;;;;;;5039284;28;20466;-67
2022/09/12 13:05:22;;;;;;;2.77;0.80;;;25.00;74.60;;;;;;5036537;28;20494;-69
2022/09/12 13:08:13;;;;;;;1.77;0.70;;;25.30;70.30;;;;;;5052026;28;20430;-68
2022/09/12 13:10:49;;;;;;;1.63;0.63;;;25.60;70.00;;;;;;5033759;28;20439;-69
2022/09/12 13:13:34;;;;;;;1.90;0.80;;;26.20;67.40;;;;;;5052620;28;20593;-68
2022/09/12 13:16:00;;;;;;;1.90;0.60;;;26.20;65.10;;;;;;5051495;28;20181;-68
2022/09/12 13:18:32;;;;;;;1.70;0.70;;;26.30;66.90;;;;;;5053614;28;20817;-69